Latest Weather Observations for Gove Airport

IDD60801

Issued at 11:01 pm CST Saturday 4 July 2015 (issued every 30 minutes, with the page automatically refreshed every 10 minutes)

About weather observations | Map of weather stations | Latest weather observations for NT | Other Formats
Station Details ID: 014508 Name: GOVE AIRPORT Lat: -12.27 Lon: 136.82 Height: 51.6 m
Data from the previous 72 hours. | See also: Recent months at Gove Airport
Date/Time
CST
Temp
°C
App
Temp
°C
Dew
Point
Rel
Hum
%
Delta-T
°C
Wind Press
QNH
hPa
Press
MSL
hPa
Rain
since 9 am
mm
Dir
 
Spd
km/h
Gust
km/h
Spd
kts
Gust
kts
04/11:00pm 24.2 23.3 18.3 69 3.7 ESE 20 26 11 14 1014.1 - 0.0
04/10:30pm 24.3 23.6 18.6 70 3.6 ESE 20 28 11 15 1014.3 - 0.0
04/10:00pm 24.3 23.7 18.8 71 3.5 ESE 20 28 11 15 1014.4 - 0.0
04/09:30pm 23.8 23.9 19.1 75 3.0 ESE 17 22 9 12 1014.4 - 0.0
04/09:00pm 24.1 22.7 18.9 72 3.3 ESE 24 32 13 17 1014.5 1014.2 0.0
04/08:30pm 23.7 23.6 20.0 80 2.4 ESE 20 30 11 16 1014.2 - 0.0
04/08:00pm 23.8 25.5 19.3 76 2.9 SE 9 15 5 8 1013.9 - 0.0
04/07:30pm 22.4 24.8 20.1 87 1.5 S 7 11 4 6 1013.7 - 0.0
04/07:00pm 22.4 24.0 19.9 86 1.6 S 11 15 6 8 1013.6 - 0.0
04/06:30pm 22.9 23.8 19.3 80 2.3 S 13 22 7 12 1013.2 - 0.0
04/06:00pm 23.5 23.9 19.1 76 2.8 SSE 15 30 8 16 1013.0 1012.7 0.0
04/05:30pm 23.6 24.0 18.9 75 3.0 SSE 15 20 8 11 1012.6 - 0.0
04/05:00pm 23.4 23.7 19.5 79 2.5 SSE 17 24 9 13 1012.3 - 0.0
04/04:30pm 24.6 24.5 19.6 73 3.2 SSE 19 30 10 16 1012.1 - 0.0
04/04:00pm 24.7 24.5 19.7 73 3.2 SSE 20 28 11 15 1012.0 - 0.0
04/03:30pm 24.9 24.8 20.0 74 3.2 SSE 20 32 11 17 1012.0 - 0.0
04/03:00pm 25.5 24.9 18.8 66 4.3 SSE 20 30 11 16 1011.9 1011.6 0.0
04/02:30pm 25.5 24.6 18.2 64 4.6 SE 20 32 11 17 1012.1 - 0.0
04/02:00pm 26.2 25.1 18.7 63 4.8 SE 22 33 12 18 1012.4 - 0.0
04/01:30pm 26.9 25.7 18.4 59 5.4 SE 22 32 12 17 1012.8 - 0.0
04/01:00pm 27.0 25.3 18.0 58 5.7 SE 24 37 13 20 1013.2 - 0.0
04/12:30pm 27.0 26.0 18.0 58 5.7 SSE 20 28 11 15 1013.7 - 0.0
04/12:00pm 26.7 25.7 18.0 59 5.5 SSE 20 30 11 16 1014.1 1013.8 0.0
04/11:30am 27.2 26.7 18.6 59 5.5 SSE 19 32 10 17 1014.5 - 0.0
04/11:00am 26.4 25.1 18.2 60 5.2 SSE 22 30 12 16 1015.0 - 0.0
04/10:30am 26.4 24.7 18.2 60 5.2 SE 24 28 13 15 1015.2 - 0.0
04/10:00am 26.1 24.4 18.2 61 5.0 SE 24 32 13 17 1015.3 - 0.0
04/09:30am 25.9 25.2 18.7 64 4.6 SE 20 28 11 15 1015.3 - 0.0
04/09:00am 25.2 24.9 19.1 69 3.9 SSE 19 30 10 16 1015.5 1015.3 0.0
04/08:30am 24.7 25.8 19.6 73 3.3 SSE 13 20 7 11 1015.1 - 0.0
04/08:00am 23.5 24.0 19.3 77 2.7 S 15 20 8 11 1014.6 - 0.0
04/07:30am 22.5 23.7 19.0 80 2.2 S 11 15 6 8 1014.3 - 0.0
04/07:00am 21.6 22.6 18.7 83 1.8 SSE 11 13 6 7 1014.2 - 0.0
04/06:30am 21.7 22.9 19.0 84 1.7 S 11 15 6 8 1014.2 - 0.0
04/06:00am 22.1 22.5 18.9 82 2.0 SE 15 17 8 9 1014.3 1014.0 0.0
04/05:30am 22.5 22.5 18.9 80 2.3 ESE 17 22 9 12 1014.3 - 0.0
04/05:00am 22.6 22.5 18.8 79 2.4 ESE 17 20 9 11 1014.5 - 0.0
04/04:30am 22.9 22.7 18.6 77 2.7 SE 17 20 9 11 1014.3 - 0.0
04/04:00am 23.1 22.6 18.7 76 2.8 SE 19 24 10 13 1014.2 - 0.0
04/03:30am 22.9 23.2 18.8 77 2.6 SE 15 19 8 10 1013.9 - 0.0
04/03:00am 22.2 23.6 18.7 80 2.2 SSE 9 15 5 8 1014.0 1013.7 0.0
04/02:30am 22.8 23.0 18.5 77 2.7 SSE 15 20 8 11 1014.1 - 0.0
04/02:00am 23.3 22.8 18.7 75 2.9 SSE 19 28 10 15 1014.2 - 0.0
04/01:30am 23.4 22.8 18.8 75 2.9 SSE 20 28 11 15 1014.4 - 0.0
04/01:00am 23.4 23.0 18.8 75 2.9 SSE 19 26 10 14 1014.6 - 0.0
04/12:30am 23.3 22.8 19.2 78 2.6 SE 20 28 11 15 1014.7 - 0.0
04/12:00am 23.1 22.8 19.5 80 2.3 SE 20 26 11 14 1014.9 1014.7 0.0
 
Date/Time
CST
Temp
°C
App
Temp
°C
Dew
Point
Rel
Hum
%
Delta-T
°C
Wind Press
QNH
hPa
Press
MSL
hPa
Rain
since 9 am
mm
Dir
 
Spd
km/h
Gust
km/h
Spd
kts
Gust
kts
03/11:30pm 23.0 22.9 19.6 81 2.2 SE 19 28 10 15 1015.2 - 0.0
03/11:00pm 23.0 23.2 19.4 80 2.3 SE 17 22 9 12 1015.2 - 0.0
03/10:30pm 23.0 23.2 19.4 80 2.3 SE 17 26 9 14 1015.3 - 0.0
03/10:00pm 23.3 23.4 19.2 78 2.6 SE 17 26 9 14 1015.4 - 0.0
03/09:30pm 23.4 23.2 19.3 78 2.6 SE 19 26 10 14 1015.4 - 0.0
03/09:00pm 23.2 23.4 19.4 79 2.4 SE 17 24 9 13 1015.2 1015.0 0.0
03/08:30pm 23.3 23.8 19.2 78 2.6 SSE 15 20 8 11 1015.1 - 0.0
03/08:00pm 23.4 23.9 19.3 78 2.6 SE 15 24 8 13 1014.9 - 0.0
03/07:30pm 23.5 24.5 19.4 78 2.6 SSE 13 20 7 11 1014.6 - 0.0
03/07:00pm 23.6 24.1 19.2 76 2.8 SSE 15 26 8 14 1014.2 - 0.0
03/06:30pm 23.6 23.7 19.2 76 2.8 SSE 17 24 9 13 1013.9 - 0.0
03/06:00pm 24.0 23.6 19.0 73 3.2 SSE 19 30 10 16 1013.8 1013.5 0.0
03/05:30pm 24.6 24.1 18.6 69 3.8 SSE 19 28 10 15 1013.6 - 0.0
03/05:00pm 25.0 24.1 19.1 70 3.8 SSE 22 32 12 17 1013.4 - 0.0
03/04:30pm 25.2 23.5 18.2 65 4.4 SE 24 33 13 18 1013.4 - 0.0
03/04:00pm 25.6 23.8 18.7 65 4.4 SE 26 39 14 21 1013.3 - 0.0
03/03:30pm 26.3 24.5 17.9 60 5.3 SSE 24 37 13 20 1013.4 - 0.0
03/03:00pm 26.9 25.7 18.4 59 5.4 SSE 22 43 12 23 1013.4 1013.1 0.0
03/02:30pm 26.2 24.1 18.0 60 5.2 SE 26 32 14 17 1013.7 - 0.0
03/02:00pm 26.1 23.2 18.0 61 5.1 SE 30 41 16 22 1014.1 - 0.0
03/01:39pm 25.9 23.5 18.2 62 4.9 SE 28 48 15 26 1014.5 - 0.0
03/01:30pm 26.7 24.2 18.0 59 5.5 SSE 28 41 15 22 1014.6 - 0.0
03/01:00pm 26.3 24.1 18.6 62 4.9 SE 28 39 15 21 1014.9 - 0.0
03/12:30pm 26.3 23.5 18.1 60 5.2 SE 30 43 16 23 1015.2 - 0.0
03/12:06pm 26.1 23.4 17.5 59 5.4 SSE 28 46 15 25 1015.5 - 0.0
03/12:00pm 25.9 23.9 17.4 59 5.3 SSE 24 37 13 20 1015.6 1015.4 0.0
03/11:30am 27.0 23.6 17.8 57 5.8 SE 32 46 17 25 1016.1 - 0.0
03/11:23am 27.0 24.2 17.3 55 6.1 SSE 28 46 15 25 1016.2 - 0.0
03/11:00am 26.7 23.9 17.3 56 5.9 SSE 28 43 15 23 1016.5 - 0.0
03/10:30am 26.4 23.7 17.5 58 5.6 SE 28 44 15 24 1016.5 - 0.0
03/10:00am 26.7 24.8 17.6 57 5.7 SE 24 39 13 21 1016.7 - 0.0
03/09:30am 26.5 23.6 17.0 56 5.9 SE 28 41 15 22 1016.7 - 0.0
03/09:00am 26.2 24.8 18.0 60 5.2 SSE 22 32 12 17 1016.7 1016.5 0.0
03/08:30am 25.6 23.6 17.4 60 5.1 SE 24 33 13 18 1016.5 - 0.0
03/08:00am 24.5 24.3 18.5 69 3.8 SE 17 24 9 13 1016.2 - 0.0
03/07:30am 22.8 23.8 19.4 81 2.2 SSE 13 17 7 9 1015.8 - 0.0
03/07:00am 20.3 21.8 19.0 92 0.8 SE 9 11 5 6 1015.6 - 0.0
03/06:30am 20.6 22.1 19.0 90 1.0 SSE 9 11 5 6 1015.4 - 0.0
03/06:00am 20.0 21.9 18.9 93 0.7 SE 7 9 4 5 1015.1 1014.9 0.0
03/05:30am 20.8 22.8 19.1 90 1.1 SSE 7 11 4 6 1014.8 - 0.0
03/05:00am 21.0 22.7 19.3 90 1.1 SSE 9 13 5 7 1014.6 - 0.0
03/04:30am 21.3 22.6 19.2 88 1.3 SE 11 15 6 8 1014.5 - 0.0
03/04:00am 21.3 22.1 19.1 87 1.4 NE 13 17 7 9 1014.6 - 0.0
03/03:30am 21.3 22.0 18.9 86 1.5 SE 13 19 7 10 1014.8 - 0.0
03/03:00am 21.0 22.5 18.9 88 1.3 SE 9 11 5 6 1015.1 1014.9 0.0
03/02:30am 21.7 23.2 19.0 84 1.7 SE 9 13 5 7 1015.3 - 0.0
03/02:00am 22.4 24.0 19.1 81 2.1 SSE 9 15 5 8 1015.6 - 0.0
03/01:30am 22.7 23.5 19.1 80 2.3 SE 13 17 7 9 1015.8 - 0.0
03/01:00am 22.4 23.7 19.4 83 1.9 ESE 11 15 6 8 1016.1 - 0.0
03/12:30am 22.2 23.2 19.5 85 1.7 ESE 13 20 7 11 1016.3 - 0.0
03/12:00am 21.4 23.2 19.5 89 1.2 ESE 9 11 5 6 1016.4 1016.2 0.0
 
Date/Time
CST
Temp
°C
App
Temp
°C
Dew
Point
Rel
Hum
%
Delta-T
°C
Wind Press
QNH
hPa
Press
MSL
hPa
Rain
since 9 am
mm
Dir
 
Spd
km/h
Gust
km/h
Spd
kts
Gust
kts
02/11:30pm 21.8 23.2 19.6 87 1.4 ESE 11 13 6 7 1016.6 - 0.0
02/11:00pm 21.6 23.5 19.7 89 1.2 ESE 9 11 5 6 1016.7 - 0.0
02/10:30pm 21.8 23.3 19.8 88 1.3 ESE 11 11 6 6 1016.9 - 0.0
02/10:00pm 21.6 23.6 19.9 90 1.1 E 9 9 5 5 1017.0 - 0.0
02/09:30pm 22.1 24.2 20.2 89 1.2 SE 9 11 5 6 1017.1 - 0.0
02/09:00pm 22.5 24.7 20.5 88 1.3 E 9 15 5 8 1016.8 1016.6 0.0
02/08:30pm 22.5 25.0 21.0 91 1.0 E 9 11 5 6 1016.5 - 0.0
02/08:00pm 22.6 25.4 20.9 90 1.1 SE 7 9 4 5 1016.3 - 0.0
02/07:30pm 23.0 26.0 21.3 90 1.1 SE 7 9 4 5 1016.1 - 0.0
02/07:00pm 23.4 26.1 21.3 88 1.4 SE 9 11 5 6 1015.8 - 0.0
02/06:30pm 24.3 26.3 20.8 81 2.3 SE 11 15 6 8 1015.4 - 0.0
02/06:00pm 25.0 25.8 20.6 76 2.9 SE 17 26 9 14 1015.2 1015.0 0.0
02/05:30pm 25.9 27.1 20.6 72 3.5 SE 15 22 8 12 1015.2 - 0.0
02/05:00pm 26.2 25.9 20.4 70 3.8 SE 22 28 12 15 1015.0 - 0.0
02/04:30pm 26.3 26.2 20.0 68 4.1 SE 20 28 11 15 1014.9 - 0.0
02/04:00pm 27.0 26.9 20.8 69 4.1 SE 22 32 12 17 1014.7 - 0.0
02/03:30pm 26.7 27.2 21.1 71 3.7 SE 20 30 11 16 1014.9 - 0.0
02/03:00pm 26.3 25.9 21.0 72 3.5 SSE 24 33 13 18 1014.9 1014.7 0.0
02/02:30pm 27.4 27.0 20.9 67 4.3 SE 24 37 13 20 1015.1 - 0.0
02/02:00pm 27.8 27.2 20.5 64 4.8 SSE 24 33 13 18 1015.3 - 0.0
02/01:30pm 27.4 26.5 20.7 67 4.4 SE 26 35 14 19 1015.5 - 0.0
02/01:00pm 27.5 27.4 20.7 66 4.5 SE 22 32 12 17 1015.9 - 0.0
02/12:30pm 27.8 27.4 21.0 66 4.5 SE 24 33 13 18 1016.3 - 0.0
02/12:00pm 27.5 26.8 20.2 64 4.8 SE 24 39 13 21 1016.7 1016.5 0.0
02/11:30am 25.9 25.2 21.1 75 3.2 SE 26 37 14 20 1017.3 - 0.0
02/11:00am 26.8 25.5 20.7 69 4.0 SE 28 41 15 22 1017.7 - 0.0
02/10:30am 27.0 24.6 19.9 65 4.6 SE 32 43 17 23 1017.7 - 0.0
02/10:00am 27.5 25.8 19.8 63 5.0 SE 28 35 15 19 1017.9 - 0.0
02/09:30am 26.9 26.3 19.7 64 4.7 SE 22 32 12 17 1018.0 - 0.0
02/09:00am 26.7 26.3 20.1 67 4.3 SE 22 30 12 16 1017.8 1017.6 18.0
02/08:30am 25.9 27.1 20.6 72 3.5 ESE 15 19 8 10 1017.5 - 18.0
02/08:00am 24.1 25.3 19.8 77 2.8 SE 13 19 7 10 1017.3 - 18.0
02/07:30am 23.2 25.0 20.4 84 1.8 SE 11 15 6 8 1017.0 - 18.0
02/07:00am 22.8 24.3 20.6 87 1.4 SSE 13 15 7 8 1016.7 - 18.0
02/06:30am 22.8 24.4 20.8 88 1.3 SSE 13 17 7 9 1016.5 - 18.0
02/06:00am 22.7 24.4 20.9 89 1.2 SSE 13 17 7 9 1016.3 1016.1 18.0
02/05:30am 22.9 24.6 20.9 88 1.3 SSE 13 19 7 10 1016.0 - 18.0
02/05:00am 22.9 24.6 20.9 88 1.3 SSE 13 19 7 10 1015.8 - 18.0
02/04:30am 22.9 24.6 20.9 88 1.3 SSE 13 19 7 10 1015.7 - 18.0
02/04:00am 23.0 24.4 21.0 88 1.3 SSE 15 22 8 12 1015.7 - 18.0
02/03:30am 22.8 24.2 21.1 90 1.1 SE 15 22 8 12 1015.7 - 18.0
02/03:00am 22.8 24.6 21.1 90 1.1 SE 13 17 7 9 1015.7 1015.5 18.0
02/02:30am 22.9 24.7 21.1 89 1.2 SE 13 17 7 9 1016.0 - 18.0
02/02:00am 23.1 24.9 21.1 88 1.3 SSE 13 17 7 9 1016.4 - 18.0
02/01:30am 23.1 24.9 21.1 88 1.3 E 13 19 7 10 1016.5 - 18.0
02/01:00am 23.3 24.8 21.2 88 1.4 SE 15 19 8 10 1016.8 - 18.0
02/12:30am 23.5 24.9 21.1 86 1.6 SE 15 20 8 11 1017.2 - 18.0
02/12:00am 23.5 24.4 20.9 85 1.7 SE 17 24 9 13 1017.3 1017.1 18.0
 
Date/Time
CST
Temp
°C
App
Temp
°C
Dew
Point
Rel
Hum
%
Delta-T
°C
Wind Press
QNH
hPa
Press
MSL
hPa
Rain
since 9 am
mm
Dir
 
Spd
km/h
Gust
km/h
Spd
kts
Gust
kts
01/11:30pm 23.6 24.0 20.7 84 1.9 SE 19 24 10 13 1017.3 - 18.0

Other Formats:

Comma delimited format used in spreadsheet applications
http://www.bom.gov.au/fwo/IDD60801/IDD60801.94150.axf

JavaScript Object Notation format (JSON) in row-major order
http://www.bom.gov.au/fwo/IDD60801/IDD60801.94150.json